Time;durP1;ratioP1;P1;durP2;ratioP2;P2;SDS_P1;SDS_P2;PMS_P1;PMS_P2;Temp;Humidity;BMP_temperature;BMP_pressure;BME280_temperature;BME280_humidity;BME280_pressure;Samples;Min_cycle;Max_cycle;Signal;HPM_P1;HPM_P2
2021/04/10 00:01:55;;;;;;;2.53;1.67;;;8.00;54.20;;;7.39;37.04;94773.44;5018164;28;20262;-84
2021/04/10 00:04:22;;;;;;;1.83;1.70;;;8.10;54.90;;;7.33;37.51;94767.91;5017988;28;20207;-84
2021/04/10 00:06:49;;;;;;;1.70;1.60;;;8.10;55.00;;;7.25;37.44;94768.00;5017943;28;20248;-85
2021/04/10 00:09:15;;;;;;;4.60;1.90;;;8.00;54.80;;;7.14;37.63;94765.78;5018181;28;20225;-85
2021/04/10 00:11:42;;;;;;;3.15;1.80;;;8.00;55.10;;;7.02;37.88;94765.41;5017892;28;20287;-84
2021/04/10 00:14:13;;;;;;;2.85;1.80;;;7.90;55.30;;;6.87;38.20;94762.69;5017745;28;20254;-84
2021/04/10 00:16:40;;;;;;;1.92;1.60;;;7.90;55.60;;;6.78;37.91;94763.75;5034216;28;20209;-84
2021/04/10 00:19:06;;;;;;;2.17;1.67;;;7.80;55.30;;;6.62;38.27;94762.84;5017900;28;20259;-85
2021/04/10 00:21:34;;;;;;;2.28;1.70;;;7.70;55.50;;;6.48;38.44;94761.78;5001492;28;20695;-85
2021/04/10 00:24:00;;;;;;;2.00;1.60;;;7.60;55.80;;;6.35;38.77;94766.72;5034005;28;20197;-84
2021/04/10 00:26:27;;;;;;;2.55;1.77;;;7.50;55.70;;;6.22;39.07;94764.63;5017659;28;20224;-84
2021/04/10 00:28:54;;;;;;;1.98;1.60;;;7.40;55.90;;;6.09;38.89;94768.59;5001213;28;20220;-85
2021/04/10 00:31:21;;;;;;;2.28;1.90;;;7.30;55.80;;;6.01;39.94;94773.00;5017854;28;20266;-84
2021/04/10 00:33:48;;;;;;;2.70;1.98;;;7.20;56.20;;;5.95;40.43;94763.25;5034004;28;20219;-84
2021/04/10 00:36:15;;;;;;;3.50;2.20;;;7.10;56.60;;;5.93;40.06;94763.38;5017357;28;20725;-84
2021/04/10 00:38:42;;;;;;;3.55;2.10;;;7.00;56.50;;;5.93;40.53;94765.97;5033891;28;20201;-84
2021/04/10 00:41:11;;;;;;;3.58;2.05;;;6.90;57.10;;;5.95;40.11;94768.44;5017288;28;20292;-84
2021/04/10 00:43:38;;;;;;;3.33;1.75;;;6.90;57.00;;;5.94;39.68;94762.41;5017955;28;20195;-84
2021/04/10 00:46:06;;;;;;;4.90;1.80;;;6.80;56.80;;;5.90;39.48;94754.13;5017287;28;20248;-84
2021/04/10 01:32:00;;;;;;;2.65;1.75;;;6.40;57.30;;;5.05;39.94;94731.13;5034016;28;20258;-84
2021/04/10 01:34:39;;;;;;;3.22;2.05;;;6.20;56.90;;;5.01;40.87;94733.22;5000000;28;20263;-84
2021/04/10 01:37:14;;;;;;;2.70;2.00;;;6.10;57.70;;;5.05;40.68;94746.72;5000738;28;20673;-84
2021/04/10 01:39:43;;;;;;;1.77;1.67;;;6.20;57.70;;;5.07;40.44;94744.78;5045244;28;20184;-83
2021/04/10 01:42:12;;;;;;;2.28;1.80;;;6.00;57.40;;;5.07;40.15;94742.19;5051419;28;20230;-83
2021/04/10 01:44:42;;;;;;;4.13;1.80;;;6.00;58.60;;;5.05;39.83;94734.53;5052959;28;20219;-83
2021/04/10 01:47:14;;;;;;;4.03;1.95;;;6.00;57.30;;;5.04;39.85;94735.53;5052798;28;20333;-84
2021/04/10 01:49:46;;;;;;;2.28;1.80;;;6.00;57.50;;;5.01;39.85;94735.84;5027464;28;20682;-84
2021/04/10 01:52:15;;;;;;;1.77;1.63;;;5.90;57.20;;;4.96;39.99;94736.31;5000064;28;20251;-84
2021/04/10 01:54:42;;;;;;;2.45;1.95;;;5.90;57.40;;;4.96;40.02;94732.91;5015997;28;20196;-84
2021/04/10 01:57:12;;;;;;;3.90;2.00;;;5.90;57.40;;;4.89;39.89;94730.13;5041783;28;20215;-84
2021/04/10 01:59:42;;;;;;;1.95;1.85;;;5.80;57.50;;;4.87;39.78;94728.66;5052655;28;20196;-83
2021/04/10 02:02:17;;;;;;;3.50;1.90;;;5.80;57.90;;;4.79;40.38;94726.88;5035259;28;20592;-84
2021/04/10 02:04:48;;;;;;;5.45;2.20;;;5.80;58.00;;;4.74;40.12;94734.34;5053440;28;20211;-84
2021/04/10 02:07:26;;;;;;;4.45;3.00;;;5.70;57.90;;;4.64;40.59;94724.91;5036711;28;20258;-84
2021/04/10 02:10:03;;;;;;;4.10;2.80;;;5.70;58.70;;;4.62;41.04;94737.22;5051936;28;20215;-84
2021/04/10 02:12:50;;;;;;;3.15;2.00;;;5.70;58.40;;;4.53;41.49;94725.22;5054953;28;20242;-83
2021/04/10 02:15:38;;;;;;;3.40;1.90;;;5.60;58.60;;;4.57;42.37;94738.69;5051621;28;20295;-84
2021/04/10 02:18:05;;;;;;;2.80;2.08;;;5.70;58.90;;;4.55;41.83;94731.03;5035767;28;20251;-84
2021/04/10 02:20:32;;;;;;;2.53;1.88;;;5.50;58.70;;;4.58;41.63;94733.34;5035583;28;20196;-84
2021/04/10 02:22:59;;;;;;;3.15;1.98;;;5.50;58.90;;;4.60;41.22;94735.78;5019014;28;20224;-84
2021/04/10 02:25:32;;;;;;;2.15;1.73;;;5.50;59.00;;;4.58;41.09;94735.13;5051854;28;20184;-85
2021/04/10 02:28:01;;;;;;;3.33;2.47;;;5.50;60.00;;;4.49;41.10;94722.13;5035521;28;20220;-84
2021/04/10 02:30:28;;;;;;;3.65;1.92;;;5.50;58.70;;;4.52;41.17;94721.00;5035773;28;20204;-84
2021/04/10 02:33:04;;;;;;;3.38;2.05;;;5.40;59.00;;;4.47;42.10;94723.25;5052409;28;20203;-84
2021/04/10 02:35:46;;;;;;;2.42;2.00;;;5.50;59.60;;;4.41;41.92;94727.28;5051967;28;20572;-84
2021/04/10 02:38:17;;;;;;;3.22;2.10;;;5.40;60.00;;;4.36;41.63;94724.38;5034548;28;20215;-84
2021/04/10 02:40:49;;;;;;;5.72;1.90;;;5.30;59.30;;;4.28;41.42;94716.53;5035748;28;20643;-84
2021/04/10 02:43:25;;;;;;;2.75;2.20;;;5.30;59.50;;;4.28;42.19;94724.34;5051752;28;20258;-84
2021/04/10 02:46:00;;;;;;;3.70;1.83;;;5.30;60.10;;;4.24;42.40;94718.63;5052125;28;20207;-85
2021/04/10 02:48:58;;;;;;;3.90;2.22;;;5.20;60.00;;;4.24;43.09;94721.22;5051209;28;20224;-84
2021/04/10 02:51:38;;;;;;;3.85;2.00;;;5.20;60.80;;;4.21;43.07;94718.13;5031573;28;20236;-86
2021/04/10 02:54:07;;;;;;;2.97;1.90;;;5.20;60.70;;;4.20;43.27;94719.09;5015729;28;20204;-84
2021/04/10 02:56:42;;;;;;;3.20;1.80;;;5.20;60.30;;;4.16;42.70;94710.81;5015285;28;20709;-84
2021/04/10 02:59:09;;;;;;;2.95;1.80;;;5.10;60.50;;;4.14;42.66;94707.59;5028313;28;20575;-84
2021/04/10 03:01:37;;;;;;;3.50;1.90;;;5.10;60.20;;;4.13;42.59;94711.94;5018779;28;20259;-84
2021/04/10 03:04:05;;;;;;;2.47;1.80;;;5.10;60.20;;;4.10;42.63;94703.66;5051909;28;20202;-84
2021/04/10 03:06:34;;;;;;;4.95;2.00;;;5.10;60.20;;;4.13;42.47;94711.94;5033775;28;20685;-84
2021/04/10 03:09:02;;;;;;;1.98;1.77;;;5.00;60.20;;;4.08;42.39;94700.44;5044295;28;20220;-85
2021/04/10 03:11:30;;;;;;;2.90;2.03;;;5.00;60.30;;;4.14;42.39;94707.59;5030445;28;20227;-86
2021/04/10 03:13:57;;;;;;;2.70;2.00;;;5.00;60.30;;;4.13;42.45;94700.75;5047036;28;20280;-86
2021/04/10 03:16:30;;;;;;;2.60;2.00;;;5.00;60.40;;;4.13;42.60;94695.56;5015922;28;20302;-84
2021/04/10 03:19:06;;;;;;;2.58;1.83;;;5.00;60.60;;;4.17;42.37;94709.84;5031085;28;20711;-84
2021/04/10 03:21:41;;;;;;;2.40;2.00;;;5.00;60.80;;;4.15;42.44;94704.00;5014782;28;20220;-84
2021/04/10 03:24:11;;;;;;;2.72;1.83;;;5.00;60.70;;;4.11;42.52;94697.50;5015739;28;20193;-84
2021/04/10 03:26:40;;;;;;;2.35;1.92;;;5.00;60.40;;;4.13;42.05;94700.75;5015840;28;20621;-84
2021/04/10 03:29:10;;;;;;;2.55;1.90;;;5.00;60.50;;;4.11;42.32;94705.28;5019151;28;20627;-84
2021/04/10 03:31:44;;;;;;;3.90;2.10;;;5.00;60.50;;;4.10;42.31;94701.06;5020206;28;20537;-83
2021/04/10 03:34:12;;;;;;;2.20;2.00;;;5.00;60.40;;;4.10;42.23;94711.44;5035509;28;20197;-84
2021/04/10 03:36:40;;;;;;;3.28;1.98;;;5.00;60.50;;;4.10;42.50;94708.84;5019127;28;20651;-84
2021/04/10 03:39:07;;;;;;;1.83;1.70;;;5.00;60.60;;;4.11;42.62;94702.69;5002313;28;20304;-84
2021/04/10 03:41:36;;;;;;;2.25;2.03;;;5.00;60.60;;;4.10;42.50;94704.50;5035064;28;20220;-84
2021/04/10 03:44:06;;;;;;;3.42;2.00;;;5.00;60.60;;;4.08;42.73;94706.41;5019105;28;20197;-84
2021/04/10 03:46:37;;;;;;;3.00;2.10;;;5.00;60.70;;;4.03;42.79;94706.09;5018475;28;20278;-85
2021/04/10 03:49:07;;;;;;;2.50;2.22;;;4.90;61.10;;;4.05;42.53;94708.50;5018818;28;20230;-86
2021/04/10 03:51:34;;;;;;;2.70;2.15;;;4.90;60.70;;;3.98;42.95;94708.34;5034580;28;20223;-86
2021/04/10 03:54:03;;;;;;;2.97;2.00;;;4.90;60.80;;;3.95;42.79;94708.63;5018348;28;20200;-87
2021/04/10 03:56:32;;;;;;;2.40;2.20;;;4.90;60.80;;;3.99;42.95;94715.97;5034107;28;20244;-84
2021/04/10 03:59:10;;;;;;;2.20;1.90;;;4.90;60.90;;;3.98;43.18;94711.72;5019830;28;20292;-84
2021/04/10 04:01:55;;;;;;;2.03;1.85;;;4.90;61.00;;;3.95;43.35;94709.44;5023830;28;20631;-87
2021/04/10 04:04:26;;;;;;;3.53;2.10;;;4.90;61.00;;;3.92;43.22;94707.16;5019133;28;20228;-85
2021/04/10 04:06:53;;;;;;;3.50;2.00;;;4.90;61.10;;;3.92;43.18;94707.16;5017450;28;20736;-85
2021/04/10 04:09:23;;;;;;;3.47;1.98;;;4.80;61.00;;;3.90;43.40;94709.09;5059431;28;20234;-84
2021/04/10 04:11:53;;;;;;;5.40;2.60;;;4.80;61.10;;;3.91;43.70;94715.13;5041844;28;20312;-85
2021/04/10 04:14:21;;;;;;;5.57;2.80;;;4.80;61.30;;;3.87;43.75;94706.84;5034131;28;20199;-85
2021/04/10 04:16:47;;;;;;;6.20;3.63;;;4.80;61.30;;;3.96;44.05;94723.25;5049170;28;20224;-85
2021/04/10 04:19:15;;;;;;;5.22;3.65;;;4.80;61.40;;;3.95;43.88;94713.81;5045550;28;20196;-85
2021/04/10 04:21:43;;;;;;;7.18;3.38;;;4.80;61.50;;;4.00;43.71;94709.81;5036587;28;20220;-85
2021/04/10 04:24:10;;;;;;;3.38;2.88;;;4.80;61.50;;;4.03;44.11;94718.22;5027560;28;20193;-85
2021/04/10 04:26:37;;;;;;;3.03;2.45;;;4.80;61.50;;;4.03;43.62;94719.06;5016441;28;20232;-85
2021/04/10 04:29:04;;;;;;;2.85;2.55;;;4.90;61.60;;;4.08;43.47;94727.19;5033757;28;20226;-85
2021/04/10 04:31:31;;;;;;;3.20;2.50;;;4.90;61.60;;;4.06;43.96;94715.34;5052203;28;20227;-85
2021/04/10 04:33:57;;;;;;;2.67;2.40;;;4.90;61.50;;;4.11;44.12;94731.25;5027559;28;20300;-85
2021/04/10 04:36:24;;;;;;;2.55;2.30;;;4.90;61.50;;;4.13;43.55;94732.72;5028189;28;20355;-85
2021/04/10 04:38:51;;;;;;;3.20;2.55;;;4.90;61.60;;;4.14;43.77;94729.16;5030557;28;20291;-85
2021/04/10 04:41:17;;;;;;;5.80;3.22;;;5.00;61.60;;;4.16;43.81;94737.59;5068723;28;20275;-84
2021/04/10 04:43:44;;;;;;;4.25;2.78;;;5.00;61.60;;;4.21;43.96;94731.94;5064516;28;20185;-86
2021/04/10 04:46:11;;;;;;;3.80;2.42;;;5.00;61.70;;;4.25;43.75;94735.84;5046335;28;20211;-86
2021/04/10 04:48:39;;;;;;;3.17;2.33;;;5.00;61.90;;;4.31;43.54;94739.59;5015813;28;20754;-86
2021/04/10 04:51:07;;;;;;;3.63;2.20;;;5.00;62.00;;;4.35;43.89;94740.09;5016853;28;20197;-85
2021/04/10 04:53:33;;;;;;;2.40;2.13;;;5.00;61.90;;;4.41;43.97;94742.06;5024511;28;20284;-84
2021/04/10 04:56:00;;;;;;;2.70;2.05;;;5.10;61.90;;;4.47;44.00;94747.44;5017150;28;20195;-86
2021/04/10 04:58:27;;;;;;;3.90;2.33;;;5.10;62.10;;;4.53;44.18;94750.34;5017257;28;20224;-86
2021/04/10 05:00:54;;;;;;;3.10;1.98;;;5.20;62.20;;;4.57;44.12;94751.69;5017038;28;20205;-85
2021/04/10 05:03:20;;;;;;;2.47;2.20;;;5.20;62.20;;;4.60;43.85;94746.16;5001543;28;20216;-84
2021/04/10 05:05:47;;;;;;;2.10;1.75;;;5.30;62.30;;;4.67;44.25;94754.16;5001133;28;20208;-86
2021/04/10 05:08:14;;;;;;;4.32;2.17;;;5.30;62.30;;;4.73;43.96;94763.91;5029654;28;20224;-85
2021/04/10 05:10:42;;;;;;;5.93;3.30;;;5.40;62.30;;;4.78;43.88;94767.63;5053420;28;20224;-86
2021/04/10 05:13:09;;;;;;;9.45;5.15;;;5.40;62.30;;;4.78;43.95;94759.84;5016799;28;20295;-86
2021/04/10 05:15:35;;;;;;;7.55;4.07;;;5.40;62.30;;;4.88;43.73;94769.28;5000862;28;20259;-87
2021/04/10 05:18:03;;;;;;;5.30;3.17;;;5.50;62.30;;;4.91;43.80;94766.38;5005529;28;20208;-87
2021/04/10 05:20:32;;;;;;;5.65;3.22;;;5.50;62.30;;;4.96;44.08;94766.69;5016926;28;20547;-86
2021/04/10 05:23:00;;;;;;;3.55;2.70;;;5.60;62.40;;;5.03;43.89;94766.84;5016680;28;20233;-87
2021/04/10 05:25:27;;;;;;;6.13;2.50;;;5.60;62.40;;;5.03;44.03;94759.88;5024690;28;20224;-86
2021/04/10 05:27:54;;;;;;;3.88;2.25;;;5.70;62.50;;;5.15;43.90;94773.41;5017169;28;20224;-85
2021/04/10 05:30:22;;;;;;;3.47;2.55;;;5.70;62.50;;;5.23;43.90;94772.56;5016813;28;20220;-87
2021/04/10 05:32:48;;;;;;;3.65;2.50;;;5.80;62.60;;;5.25;44.19;94761.03;5033100;28;20275;-87
2021/04/10 05:35:16;;;;;;;4.65;2.38;;;5.80;62.40;;;5.42;43.96;94769.66;5015980;28;20303;-87
2021/04/10 05:37:43;;;;;;;3.47;2.60;;;5.90;62.50;;;5.57;44.24;94766.38;5016967;28;20209;-86
2021/04/10 05:40:10;;;;;;;3.55;2.83;;;6.00;62.70;;;5.72;44.13;94771.72;5017580;28;20259;-86
2021/04/10 05:42:37;;;;;;;10.25;5.72;;;6.10;62.80;;;5.86;43.74;94772.84;5022851;28;20717;-87
2021/04/10 05:45:05;;;;;;;7.47;5.22;;;6.20;62.80;;;6.02;43.56;94779.84;5052409;28;20257;-87
2021/04/10 05:47:32;;;;;;;5.97;4.35;;;6.30;62.70;;;6.13;43.63;94776.06;5052919;28;20278;-86
2021/04/10 05:49:59;;;;;;;6.28;4.07;;;6.40;62.60;;;6.27;43.54;94783.16;5035107;28;20235;-86
2021/04/10 05:52:25;;;;;;;26.90;6.70;;;6.50;62.50;;;6.37;43.17;94789.00;5052837;28;20208;-87
2021/04/10 05:54:52;;;;;;;12.15;7.25;;;6.60;62.50;;;6.41;43.40;94771.25;5036392;28;20192;-86
2021/04/10 05:57:19;;;;;;;8.52;6.93;;;6.70;62.40;;;6.59;43.18;94781.41;5036193;28;20251;-88
2021/04/10 05:59:46;;;;;;;12.20;6.75;;;6.80;62.40;;;6.69;43.33;94776.00;5035974;28;20192;-87
2021/04/10 06:02:13;;;;;;;13.38;6.82;;;7.00;62.40;;;6.80;43.42;94778.22;5036396;28;20211;-87
2021/04/10 06:04:40;;;;;;;9.90;6.00;;;7.00;62.40;;;6.93;43.19;94776.84;5035653;28;20192;-86
2021/04/10 06:07:07;;;;;;;4.80;4.07;;;7.10;62.30;;;7.01;43.14;94772.38;5052603;28;20216;-87
2021/04/10 06:09:34;;;;;;;6.72;3.65;;;7.20;62.30;;;7.13;43.20;94771.97;5035398;28;20219;-86
2021/04/10 06:12:00;;;;;;;4.20;3.22;;;7.40;62.30;;;7.22;43.05;94768.34;5052154;28;20207;-86
2021/04/10 06:14:27;;;;;;;7.28;3.90;;;7.50;62.30;;;7.31;42.95;94766.47;5052081;28;20211;-86
2021/04/10 06:16:54;;;;;;;7.13;4.55;;;7.60;62.50;;;7.41;43.44;94771.44;5052040;28;20215;-85
2021/04/10 06:19:22;;;;;;;7.93;4.97;;;7.60;62.60;;;7.57;42.74;94776.56;5035719;28;20204;-85
2021/04/10 06:21:48;;;;;;;8.30;4.38;;;7.70;62.90;;;7.69;43.46;94775.13;5052063;28;20212;-86
2021/04/10 06:24:16;;;;;;;7.82;3.90;;;7.80;63.00;;;7.81;43.53;94779.91;5035588;28;20208;-86
2021/04/10 06:26:43;;;;;;;6.68;4.05;;;7.90;63.00;;;7.95;43.63;94786.97;5051736;28;20270;-85
2021/04/10 06:29:12;;;;;;;5.72;3.47;;;8.10;63.10;;;8.11;43.52;94779.97;5035225;28;20224;-85
2021/04/10 06:31:40;;;;;;;5.82;3.28;;;8.20;63.10;;;8.27;43.49;94778.97;5032746;28;20768;-86
2021/04/10 06:34:08;;;;;;;7.60;3.47;;;8.30;63.10;;;8.44;43.58;94783.00;5043752;28;20188;-84
2021/04/10 06:36:36;;;;;;;44.88;10.48;;;8.50;63.10;;;8.61;43.37;94775.81;5044783;28;20810;-86
2021/04/10 06:39:04;;;;;;;139.88;29.48;;;8.60;63.20;;;8.80;43.32;94786.69;5015527;28;20200;-86
2021/04/10 06:41:34;;;;;;;71.95;20.13;;;8.70;63.00;;;8.94;43.50;94790.28;5032462;28;20220;-86
2021/04/10 06:44:02;;;;;;;44.65;13.70;;;8.90;63.00;;;9.09;42.94;94790.22;5015889;28;20200;-85
2021/04/10 06:46:33;;;;;;;24.48;8.80;;;9.10;62.70;;;9.22;43.16;94792.97;5015168;28;20252;-85
2021/04/10 06:49:05;;;;;;;27.35;9.10;;;9.20;62.60;;;9.33;43.14;94781.19;5032103;28;20224;-86
2021/04/10 06:51:33;;;;;;;20.20;6.90;;;9.30;62.70;;;9.46;42.67;94791.00;5033103;28;20216;-86
2021/04/10 06:54:02;;;;;;;10.82;5.75;;;9.40;62.70;;;9.56;42.87;94794.09;5031931;28;20722;-86
2021/04/10 06:56:32;;;;;;;6.78;3.90;;;9.60;63.00;;;9.69;42.90;94789.97;5031659;28;20626;-86
2021/04/10 06:59:54;;;;;;;11.55;4.80;;;9.70;63.10;;;9.78;43.11;94791.47;5031874;28;20204;-86
2021/04/10 07:02:22;;;;;;;8.23;5.95;;;9.80;63.00;;;9.91;43.13;94793.34;5017302;28;20224;-85
2021/04/10 07:04:50;;;;;;;8.73;6.07;;;10.00;61.60;;;10.01;43.08;94793.03;5035690;28;20619;-86
2021/04/10 07:07:16;;;;;;;13.15;7.55;;;10.10;61.70;;;10.09;43.46;94788.47;5035850;28;20212;-85
2021/04/10 07:09:44;;;;;;;14.88;7.28;;;10.20;61.70;;;10.28;43.04;94799.25;5035876;28;20685;-85
2021/04/10 07:12:11;;;;;;;13.02;6.40;;;10.30;61.80;;;10.40;43.17;94803.00;5036649;28;20212;-86
2021/04/10 07:14:37;;;;;;;56.92;19.02;;;10.40;61.60;;;10.57;43.07;94798.25;5019187;28;20193;-86
2021/04/10 07:17:05;;;;;;;55.63;18.95;;;10.50;61.50;;;10.72;43.22;94792.84;5019417;28;20220;-86
2021/04/10 07:19:32;;;;;;;27.40;11.23;;;10.60;61.50;;;10.88;42.72;94791.69;5019042;28;20215;-84
2021/04/10 07:22:15;;;;;;;17.15;6.70;;;10.80;61.80;;;11.08;43.00;94792.78;5018547;28;20231;-86
2021/04/10 07:24:50;;;;;;;9.05;4.60;;;10.90;61.90;;;11.27;43.12;94791.22;5019408;28;20188;-86
2021/04/10 07:27:25;;;;;;;8.30;3.58;;;11.00;61.80;;;11.45;42.59;94794.06;5026858;28;20713;-85
2021/04/10 07:29:59;;;;;;;5.65;3.00;;;11.20;61.70;;;11.65;42.49;94788.03;5035503;28;20239;-87
2021/04/10 07:32:38;;;;;;;6.25;3.40;;;11.40;62.80;;;11.83;42.82;94795.31;5019199;28;20270;-85
2021/04/10 07:35:12;;;;;;;5.55;3.40;;;11.50;61.80;;;12.03;42.55;94789.28;5035261;28;20214;-86
2021/04/10 07:37:58;;;;;;;4.20;2.83;;;11.70;61.70;;;12.22;42.35;94793.69;5035323;28;20216;-88
2021/04/10 07:40:26;;;;;;;6.18;3.00;;;11.90;61.70;;;12.39;42.30;94806.41;5019129;28;20196;-86
2021/04/10 07:43:00;;;;;;;3.38;2.72;;;12.10;61.50;;;12.55;41.93;94797.25;5035062;28;20215;-86
2021/04/10 07:45:33;;;;;;;5.18;3.20;;;12.20;61.50;;;12.70;42.41;94804.91;5018613;28;20232;-86
2021/04/10 07:48:10;;;;;;;6.40;3.05;;;12.40;61.70;;;12.85;42.23;94799.38;5018615;28;20224;-86
2021/04/10 07:50:38;;;;;;;6.20;3.35;;;12.50;61.80;;;12.99;42.09;94798.31;5034838;28;20216;-86
2021/04/10 07:53:23;;;;;;;3.60;2.97;;;12.70;61.90;;;13.13;42.26;94807.78;5034739;28;20269;-87
2021/04/10 07:55:51;;;;;;;3.38;3.08;;;12.80;61.90;;;13.26;42.35;94808.72;5033093;28;20212;-86
2021/04/10 07:58:28;;;;;;;7.13;3.38;;;12.90;61.70;;;13.36;42.20;94803.78;5032827;28;20208;-86
2021/04/10 08:01:01;;;;;;;6.38;2.88;;;13.10;61.80;;;13.49;42.27;94804.75;5051032;28;20199;-86
2021/04/10 08:03:37;;;;;;;5.63;3.40;;;13.20;61.70;;;13.62;42.13;94804.66;5017885;28;20650;-86
2021/04/10 08:06:08;;;;;;;7.47;3.47;;;13.30;61.60;;;13.74;42.10;94797.72;5034670;28;20200;-86
2021/04/10 08:08:58;;;;;;;4.93;3.38;;;13.50;61.70;;;13.89;41.64;94794.75;5050811;28;20684;-87
2021/04/10 08:11:32;;;;;;;5.63;3.28;;;13.60;61.80;;;14.03;42.00;94790.16;5018178;28;20246;-86
2021/04/10 08:14:13;;;;;;;4.40;3.53;;;13.70;61.80;;;14.20;41.91;94795.69;5033741;28;20203;-87
2021/04/10 08:16:44;;;;;;;6.50;4.25;;;14.00;61.30;;;14.38;41.40;94792.28;5030886;28;20764;-85
2021/04/10 08:19:12;;;;;;;11.05;4.63;;;14.00;61.00;;;14.56;39.44;94801.22;5034388;28;20196;-86
2021/04/10 08:21:43;;;;;;;5.40;4.07;;;14.20;59.30;;;14.75;38.41;94802.09;5017627;28;20224;-85
2021/04/10 08:24:27;;;;;;;5.47;3.35;;;14.30;58.60;;;14.95;38.89;94804.50;5050748;28;20238;-86
2021/04/10 08:27:02;;;;;;;3.35;3.00;;;14.50;58.90;;;15.12;38.27;94790.69;5033919;28;20224;-86
2021/04/10 08:29:30;;;;;;;4.70;3.10;;;14.70;58.40;;;15.29;38.06;94794.28;5023835;28;20214;-87
2021/04/10 08:31:57;;;;;;;5.75;3.03;;;14.80;58.30;;;15.45;37.77;94792.88;5053823;28;20257;-84
2021/04/10 08:34:26;;;;;;;4.32;2.85;;;15.00;58.10;;;15.57;37.80;94792.09;5053897;28;20254;-85
2021/04/10 08:37:00;;;;;;;6.57;3.40;;;15.20;58.20;;;15.75;36.98;94796.53;5070227;28;20215;-85
2021/04/10 08:39:32;;;;;;;4.82;3.65;;;15.40;57.30;;;15.90;37.63;94785.53;5052395;28;20252;-84
2021/04/10 08:42:01;;;;;;;4.47;3.00;;;15.40;57.50;;;16.04;37.18;94786.94;5053750;28;20215;-85
2021/04/10 08:44:31;;;;;;;4.07;3.58;;;15.60;57.60;;;16.16;34.79;94784.28;5053448;28;20191;-85
2021/04/10 08:46:59;;;;;;;5.05;2.95;;;15.80;55.30;;;16.29;34.90;94777.94;5069612;28;20270;-85
2021/04/10 08:49:36;;;;;;;5.18;3.55;;;15.90;55.90;;;16.38;33.57;94791.63;5037180;28;20678;-84
2021/04/10 08:52:08;;;;;;;6.22;3.28;;;16.00;54.10;;;16.49;34.61;94781.06;5053396;28;20682;-83
2021/04/10 08:54:41;;;;;;;4.75;3.38;;;16.10;54.70;;;16.63;34.99;94786.88;5053145;28;20179;-85
2021/04/10 08:57:12;;;;;;;6.35;3.35;;;16.30;55.20;;;16.73;34.96;94786.28;5069907;28;20255;-84
2021/04/10 08:59:48;;;;;;;4.13;2.92;;;16.40;54.90;;;16.85;35.00;94788.13;5054281;28;20191;-85
2021/04/10 09:02:19;;;;;;;3.97;2.85;;;16.50;54.80;;;16.96;35.00;94784.69;5052773;28;20234;-86
2021/04/10 09:05:09;;;;;;;4.70;3.08;;;16.60;54.80;;;17.10;35.20;94780.72;5053445;28;20543;-85
2021/04/10 09:07:47;;;;;;;4.57;2.85;;;16.70;54.90;;;17.25;35.15;94779.41;5037218;28;20705;-86
2021/04/10 09:10:29;;;;;;;4.05;2.90;;;16.90;54.80;;;17.38;34.34;94788.91;5052040;28;20219;-86
2021/04/10 09:13:06;;;;;;;4.25;3.00;;;16.90;53.80;;;17.53;34.41;94783.09;5053131;28;20219;-84
2021/04/10 09:15:32;;;;;;;5.15;3.00;;;17.10;53.70;;;17.65;34.36;94777.69;5052790;28;20221;-85
2021/04/10 09:18:02;;;;;;;6.43;2.95;;;17.20;54.00;;;17.81;33.59;94784.88;5036725;28;20215;-86
2021/04/10 09:20:44;;;;;;;6.38;5.00;;;17.30;53.60;;;17.93;33.64;94779.47;5036430;28;20207;-85
2021/04/10 09:23:31;;;;;;;15.85;12.05;;;17.50;53.60;;;18.02;33.62;94771.97;5053538;28;20212;-85
2021/04/10 09:26:06;;;;;;;6.72;5.88;;;17.60;52.90;;;18.13;33.31;94772.94;5051025;28;20215;-83
2021/04/10 09:28:34;;;;;;;6.45;3.00;;;17.70;52.70;;;18.23;32.20;94765.09;5035958;28;20199;-85
2021/04/10 09:31:02;;;;;;;4.13;3.13;;;17.90;52.10;;;18.39;32.68;94774.09;5052204;28;20211;-86
2021/04/10 09:33:29;;;;;;;4.05;2.78;;;18.00;52.90;;;18.58;33.08;94768.50;5051499;28;20227;-86
2021/04/10 09:35:59;;;;;;;4.50;3.03;;;18.00;52.90;;;18.76;32.97;94768.22;5052536;28;20198;-84
2021/04/10 09:38:45;;;;;;;5.57;3.17;;;18.20;53.10;;;18.96;32.99;94767.69;5050705;28;20216;-83
2021/04/10 09:41:12;;;;;;;5.50;2.85;;;18.40;53.30;;;19.11;32.71;94764.38;5035704;28;20222;-84
2021/04/10 09:44:04;;;;;;;4.85;2.83;;;18.60;52.90;;;19.18;32.42;94767.66;5056208;28;20564;-84
2021/04/10 09:46:33;;;;;;;4.40;2.42;;;18.70;52.70;;;19.21;31.70;94766.34;5028021;28;20227;-85
2021/04/10 09:49:00;;;;;;;4.32;2.72;;;18.80;51.60;;;19.18;30.36;94766.88;5000273;28;20203;-84
2021/04/10 09:51:27;;;;;;;3.88;2.50;;;18.90;50.20;;;19.16;30.20;94767.13;5000002;28;20219;-84
2021/04/10 09:53:54;;;;;;;2.88;2.10;;;18.90;50.00;;;19.19;30.76;94761.28;5048540;28;20199;-85
2021/04/10 09:56:22;;;;;;;6.07;2.90;;;19.00;50.30;;;19.27;31.04;94759.25;5015949;28;20208;-84
2021/04/10 09:58:52;;;;;;;4.90;2.58;;;19.00;50.90;;;19.36;31.45;94755.88;5028283;28;20208;-85
2021/04/10 10:01:27;;;;;;;4.20;2.95;;;19.00;51.10;;;19.41;30.72;94757.78;5015623;28;20220;-84
2021/04/10 10:03:54;;;;;;;10.82;3.72;;;19.10;50.40;;;19.47;30.87;94754.13;5032356;28;20188;-85
2021/04/10 10:06:32;;;;;;;5.00;2.70;;;19.20;50.40;;;19.48;30.74;94755.72;5036449;28;20195;-84
2021/04/10 10:09:26;;;;;;;4.15;2.55;;;19.20;50.00;;;19.49;30.78;94754.69;5021949;28;20314;-85
2021/04/10 10:11:56;;;;;;;7.90;3.00;;;19.30;50.00;;;19.55;30.33;94750.19;5031668;28;20719;-85
2021/04/10 10:14:24;;;;;;;4.05;2.75;;;19.30;49.50;;;19.60;30.22;94757.44;5049425;28;20205;-84
2021/04/10 10:16:53;;;;;;;4.78;2.80;;;19.30;49.70;;;19.68;30.40;94754.31;5032148;28;20228;-85
2021/04/10 10:19:21;;;;;;;4.50;2.50;;;19.40;50.00;;;19.75;30.67;94759.41;5032031;28;20199;-84
2021/04/10 10:21:49;;;;;;;4.65;2.72;;;19.50;50.00;;;19.84;30.85;94756.06;5048467;28;20594;-84
2021/04/10 10:24:21;;;;;;;3.78;2.53;;;19.50;50.50;;;19.93;29.98;94752.94;5030826;28;20229;-85
2021/04/10 10:26:49;;;;;;;3.35;2.40;;;19.60;49.60;;;20.03;30.64;94754.88;5051482;28;20222;-85
2021/04/10 10:29:17;;;;;;;5.13;3.38;;;19.60;49.80;;;20.11;30.48;94751.75;5035052;28;20227;-83
2021/04/10 10:31:51;;;;;;;6.55;3.05;;;19.70;49.50;;;20.14;29.15;94760.03;5035063;28;20223;-84
2021/04/10 10:34:22;;;;;;;5.70;3.25;;;19.80;48.50;;;20.19;29.37;94751.28;5034713;28;20191;-84
2021/04/10 10:36:52;;;;;;;3.72;2.53;;;19.80;48.40;;;20.24;30.35;94745.97;5053100;28;20223;-84
2021/04/10 10:39:35;;;;;;;4.80;2.92;;;19.90;50.30;;;20.29;29.12;94750.53;5047538;28;20378;-83
2021/04/10 10:42:05;;;;;;;5.15;3.05;;;20.00;49.10;;;20.36;29.24;94748.44;5002655;28;20314;-85
2021/04/10 10:44:36;;;;;;;4.45;3.30;;;20.00;48.50;;;20.40;28.76;94746.88;5035567;28;20673;-84
2021/04/10 10:47:08;;;;;;;4.53;2.95;;;20.10;48.00;;;20.44;29.56;94742.63;5035582;28;20270;-83
2021/04/10 10:49:37;;;;;;;4.20;3.20;;;20.10;48.50;;;20.48;29.95;94740.25;5035424;28;20282;-84
2021/04/10 10:52:04;;;;;;;6.22;2.70;;;20.20;49.40;;;20.60;30.08;94751.53;5052180;28;20492;-84
2021/04/10 10:54:36;;;;;;;6.95;3.20;;;20.20;49.50;;;20.62;28.19;94752.03;5035218;28;20200;-85
2021/04/10 10:57:12;;;;;;;4.55;2.83;;;20.30;47.30;;;20.63;27.87;94744.88;5018419;28;20247;-84
2021/04/10 10:59:56;;;;;;;3.40;2.97;;;20.30;47.20;;;20.62;28.61;94744.03;5021473;28;20701;-84
2021/04/10 11:02:23;;;;;;;32.75;3.70;;;20.30;47.40;;;20.68;28.60;94736.88;5019006;28;20228;-85
2021/04/10 11:04:53;;;;;;;5.55;3.10;;;20.50;47.70;;;20.72;28.16;94753.97;5035004;28;20200;-85
2021/04/10 11:07:28;;;;;;;3.70;2.70;;;20.50;47.30;;;20.73;28.36;94742.25;5018709;28;20231;-85
2021/04/10 11:09:56;;;;;;;3.65;2.60;;;20.50;46.90;;;20.73;28.30;94747.59;5044940;28;20222;-85
2021/04/10 11:12:24;;;;;;;4.72;3.13;;;20.50;47.00;;;20.69;27.21;94743.81;5058111;28;20226;-85
2021/04/10 11:14:58;;;;;;;4.80;2.67;;;20.50;46.00;;;20.62;27.55;94733.38;5075249;28;20205;-84
2021/04/10 11:17:33;;;;;;;7.65;2.70;;;20.50;46.10;;;20.66;27.85;94738.22;5058535;28;20218;-84
2021/04/10 11:20:30;;;;;;;6.47;2.50;;;20.50;46.30;;;20.70;27.64;94737.44;5074756;28;20198;-85
2021/04/10 11:23:05;;;;;;;4.60;2.33;;;20.50;46.20;;;20.78;27.89;94746.81;5058630;28;20757;-85
2021/04/10 11:25:53;;;;;;;18.08;2.90;;;20.60;46.30;;;20.82;28.12;94749.78;5058522;28;20301;-84